sensor_id;sensor_type;location;lat;lon;timestamp;temperature;humidity
21612;DHT22;47005;52.292;13.452;2023-08-31T00:01:47;16.30;99.90
21612;DHT22;47005;52.292;13.452;2023-08-31T00:04:14;16.30;99.90
21612;DHT22;47005;52.292;13.452;2023-08-31T00:06:43;16.40;99.90
21612;DHT22;47005;52.292;13.452;2023-08-31T00:09:11;16.30;99.90
21612;DHT22;47005;52.292;13.452;2023-08-31T00:11:37;16.30;99.90
21612;DHT22;47005;52.292;13.452;2023-08-31T00:14:03;16.30;99.90
21612;DHT22;47005;52.292;13.452;2023-08-31T00:16:30;16.30;99.90
21612;DHT22;47005;52.292;13.452;2023-08-31T00:18:56;16.30;99.90
21612;DHT22;47005;52.292;13.452;2023-08-31T00:21:22;16.30;99.90
21612;DHT22;47005;52.292;13.452;2023-08-31T00:23:48;16.30;99.90
21612;DHT22;47005;52.292;13.452;2023-08-31T00:26:14;16.30;99.90
21612;DHT22;47005;52.292;13.452;2023-08-31T00:28:40;16.30;99.90
21612;DHT22;47005;52.292;13.452;2023-08-31T00:31:08;16.30;99.90
21612;DHT22;47005;52.292;13.452;2023-08-31T00:33:34;16.30;99.90
21612;DHT22;47005;52.292;13.452;2023-08-31T00:36:03;16.30;99.90
21612;DHT22;47005;52.292;13.452;2023-08-31T00:38:29;16.30;99.90
21612;DHT22;47005;52.292;13.452;2023-08-31T00:40:55;16.30;99.90
21612;DHT22;47005;52.292;13.452;2023-08-31T00:43:20;16.30;99.90
21612;DHT22;47005;52.292;13.452;2023-08-31T00:45:48;16.30;99.90
21612;DHT22;47005;52.292;13.452;2023-08-31T00:48:15;16.30;99.90
21612;DHT22;47005;52.292;13.452;2023-08-31T00:50:45;16.20;99.90
21612;DHT22;47005;52.292;13.452;2023-08-31T00:53:12;16.20;99.90
21612;DHT22;47005;52.292;13.452;2023-08-31T00:55:38;16.20;99.90
21612;DHT22;47005;52.292;13.452;2023-08-31T00:58:05;16.20;99.90
21612;DHT22;47005;52.292;13.452;2023-08-31T01:03:58;16.20;99.90
21612;DHT22;47005;52.292;13.452;2023-08-31T01:06:53;16.20;99.90
21612;DHT22;47005;52.292;13.452;2023-08-31T01:09:45;16.20;99.90
21612;DHT22;47005;52.292;13.452;2023-08-31T01:12:21;16.20;99.90
21612;DHT22;47005;52.292;13.452;2023-08-31T01:14:59;16.20;99.90
21612;DHT22;47005;52.292;13.452;2023-08-31T01:17:29;16.20;99.90
21612;DHT22;47005;52.292;13.452;2023-08-31T01:19:58;16.20;99.90
21612;DHT22;47005;52.292;13.452;2023-08-31T01:24:50;16.20;99.90
21612;DHT22;47005;52.292;13.452;2023-08-31T01:27:17;16.20;99.90
21612;DHT22;47005;52.292;13.452;2023-08-31T01:29:43;16.20;99.90
21612;DHT22;47005;52.292;13.452;2023-08-31T01:32:08;16.20;99.90
21612;DHT22;47005;52.292;13.452;2023-08-31T01:34:35;16.20;99.90
21612;DHT22;47005;52.292;13.452;2023-08-31T01:37:03;16.20;99.90
21612;DHT22;47005;52.292;13.452;2023-08-31T01:39:37;16.20;99.90
21612;DHT22;47005;52.292;13.452;2023-08-31T01:42:07;16.20;99.90
21612;DHT22;47005;52.292;13.452;2023-08-31T01:44:34;16.20;99.90
21612;DHT22;47005;52.292;13.452;2023-08-31T01:47:04;16.10;99.90
21612;DHT22;47005;52.292;13.452;2023-08-31T01:49:38;16.10;99.90
21612;DHT22;47005;52.292;13.452;2023-08-31T01:52:05;16.10;99.90
21612;DHT22;47005;52.292;13.452;2023-08-31T01:54:31;16.10;99.90
21612;DHT22;47005;52.292;13.452;2023-08-31T01:56:57;16.10;99.90
21612;DHT22;47005;52.292;13.452;2023-08-31T01:59:23;16.10;99.90
21612;DHT22;47005;52.292;13.452;2023-08-31T02:01:48;16.10;99.90
21612;DHT22;47005;52.292;13.452;2023-08-31T02:04:14;16.10;99.90
21612;DHT22;47005;52.292;13.452;2023-08-31T02:06:40;16.10;99.90
21612;DHT22;47005;52.292;13.452;2023-08-31T02:09:06;16.10;99.90
21612;DHT22;47005;52.292;13.452;2023-08-31T02:11:31;16.10;99.90
21612;DHT22;47005;52.292;13.452;2023-08-31T02:14:00;16.10;99.90
21612;DHT22;47005;52.292;13.452;2023-08-31T02:16:26;16.10;99.90
21612;DHT22;47005;52.292;13.452;2023-08-31T02:18:51;16.10;99.90
21612;DHT22;47005;52.292;13.452;2023-08-31T02:21:17;16.10;99.90
21612;DHT22;47005;52.292;13.452;2023-08-31T02:23:43;16.10;99.90
21612;DHT22;47005;52.292;13.452;2023-08-31T02:26:10;16.10;99.90
21612;DHT22;47005;52.292;13.452;2023-08-31T02:28:36;16.00;99.90
21612;DHT22;47005;52.292;13.452;2023-08-31T02:31:02;16.00;99.90
21612;DHT22;47005;52.292;13.452;2023-08-31T02:33:28;16.00;99.90
21612;DHT22;47005;52.292;13.452;2023-08-31T02:35:55;16.00;99.90
21612;DHT22;47005;52.292;13.452;2023-08-31T02:38:21;16.00;99.90
21612;DHT22;47005;52.292;13.452;2023-08-31T02:40:47;16.00;99.90
21612;DHT22;47005;52.292;13.452;2023-08-31T02:43:13;16.00;99.90
21612;DHT22;47005;52.292;13.452;2023-08-31T02:45:39;16.00;99.90
21612;DHT22;47005;52.292;13.452;2023-08-31T02:48:07;15.90;99.90
21612;DHT22;47005;52.292;13.452;2023-08-31T02:50:34;15.90;99.90
21612;DHT22;47005;52.292;13.452;2023-08-31T02:53:00;15.90;99.90
21612;DHT22;47005;52.292;13.452;2023-08-31T02:55:26;15.90;99.90
21612;DHT22;47005;52.292;13.452;2023-08-31T02:57:51;15.90;99.90
21612;DHT22;47005;52.292;13.452;2023-08-31T03:00:17;15.90;99.90
21612;DHT22;47005;52.292;13.452;2023-08-31T03:02:47;15.90;99.90
21612;DHT22;47005;52.292;13.452;2023-08-31T03:05:13;15.90;99.90
21612;DHT22;47005;52.292;13.452;2023-08-31T03:07:39;15.90;99.90
21612;DHT22;47005;52.292;13.452;2023-08-31T03:10:05;15.90;99.90
21612;DHT22;47005;52.292;13.452;2023-08-31T03:12:30;15.90;99.90
21612;DHT22;47005;52.292;13.452;2023-08-31T03:14:56;15.80;99.90
21612;DHT22;47005;52.292;13.452;2023-08-31T03:17:22;15.80;99.90
21612;DHT22;47005;52.292;13.452;2023-08-31T03:19:47;15.80;99.90
21612;DHT22;47005;52.292;13.452;2023-08-31T03:22:13;15.80;99.90
21612;DHT22;47005;52.292;13.452;2023-08-31T03:24:38;15.80;99.90
21612;DHT22;47005;52.292;13.452;2023-08-31T03:27:04;15.80;99.90
21612;DHT22;47005;52.292;13.452;2023-08-31T03:29:30;15.80;99.90
21612;DHT22;47005;52.292;13.452;2023-08-31T03:31:57;15.80;99.90
21612;DHT22;47005;52.292;13.452;2023-08-31T03:34:23;15.80;99.90
21612;DHT22;47005;52.292;13.452;2023-08-31T03:36:48;15.80;99.90
21612;DHT22;47005;52.292;13.452;2023-08-31T03:39:15;15.80;99.90
21612;DHT22;47005;52.292;13.452;2023-08-31T03:41:41;15.80;99.90
21612;DHT22;47005;52.292;13.452;2023-08-31T03:44:07;15.80;99.90
21612;DHT22;47005;52.292;13.452;2023-08-31T03:46:32;15.80;99.90
21612;DHT22;47005;52.292;13.452;2023-08-31T03:48:58;15.70;99.90
21612;DHT22;47005;52.292;13.452;2023-08-31T03:51:23;15.70;99.90
21612;DHT22;47005;52.292;13.452;2023-08-31T03:53:49;15.70;99.90
21612;DHT22;47005;52.292;13.452;2023-08-31T03:56:15;15.70;99.90
21612;DHT22;47005;52.292;13.452;2023-08-31T03:58:40;15.70;99.90
21612;DHT22;47005;52.292;13.452;2023-08-31T04:01:06;15.70;99.90
21612;DHT22;47005;52.292;13.452;2023-08-31T04:03:31;15.70;99.90
21612;DHT22;47005;52.292;13.452;2023-08-31T04:05:57;15.70;99.90
21612;DHT22;47005;52.292;13.452;2023-08-31T04:08:22;15.70;99.90
21612;DHT22;47005;52.292;13.452;2023-08-31T04:10:48;15.70;99.90
21612;DHT22;47005;52.292;13.452;2023-08-31T04:13:14;15.70;99.90
21612;DHT22;47005;52.292;13.452;2023-08-31T04:15:39;15.70;99.90
21612;DHT22;47005;52.292;13.452;2023-08-31T04:18:05;15.60;99.90
21612;DHT22;47005;52.292;13.452;2023-08-31T04:20:33;15.60;99.90
21612;DHT22;47005;52.292;13.452;2023-08-31T04:22:58;15.60;99.90
21612;DHT22;47005;52.292;13.452;2023-08-31T04:25:24;15.60;99.90
21612;DHT22;47005;52.292;13.452;2023-08-31T04:27:50;15.70;99.90
21612;DHT22;47005;52.292;13.452;2023-08-31T04:30:15;15.60;99.90
21612;DHT22;47005;52.292;13.452;2023-08-31T04:32:41;15.60;99.90
21612;DHT22;47005;52.292;13.452;2023-08-31T04:35:07;15.60;99.90
21612;DHT22;47005;52.292;13.452;2023-08-31T04:37:33;15.60;99.90
21612;DHT22;47005;52.292;13.452;2023-08-31T04:39:59;15.60;99.90
21612;DHT22;47005;52.292;13.452;2023-08-31T04:42:24;15.70;99.90
21612;DHT22;47005;52.292;13.452;2023-08-31T04:44:50;15.60;99.90
21612;DHT22;47005;52.292;13.452;2023-08-31T04:47:16;15.60;99.90
21612;DHT22;47005;52.292;13.452;2023-08-31T04:49:41;15.60;99.90
21612;DHT22;47005;52.292;13.452;2023-08-31T04:52:08;15.70;99.90
21612;DHT22;47005;52.292;13.452;2023-08-31T04:54:33;15.60;99.90
21612;DHT22;47005;52.292;13.452;2023-08-31T04:56:59;15.60;99.90
21612;DHT22;47005;52.292;13.452;2023-08-31T04:59:24;15.60;99.90
21612;DHT22;47005;52.292;13.452;2023-08-31T05:01:50;15.60;99.90
21612;DHT22;47005;52.292;13.452;2023-08-31T05:04:16;15.70;99.90
21612;DHT22;47005;52.292;13.452;2023-08-31T05:06:41;15.60;99.90
21612;DHT22;47005;52.292;13.452;2023-08-31T05:09:07;15.60;99.90
21612;DHT22;47005;52.292;13.452;2023-08-31T05:11:33;15.60;99.90
21612;DHT22;47005;52.292;13.452;2023-08-31T05:13:59;15.70;99.90
21612;DHT22;47005;52.292;13.452;2023-08-31T05:16:24;15.60;99.90
21612;DHT22;47005;52.292;13.452;2023-08-31T05:18:50;15.60;99.90
21612;DHT22;47005;52.292;13.452;2023-08-31T05:21:16;15.60;99.90
21612;DHT22;47005;52.292;13.452;2023-08-31T05:23:41;15.60;99.90
21612;DHT22;47005;52.292;13.452;2023-08-31T05:26:07;15.70;99.90
21612;DHT22;47005;52.292;13.452;2023-08-31T05:28:32;15.70;99.90
21612;DHT22;47005;52.292;13.452;2023-08-31T05:31:01;15.60;99.90
21612;DHT22;47005;52.292;13.452;2023-08-31T05:33:26;15.60;99.90
21612;DHT22;47005;52.292;13.452;2023-08-31T05:35:54;15.60;99.90
21612;DHT22;47005;52.292;13.452;2023-08-31T05:38:19;15.60;99.90
21612;DHT22;47005;52.292;13.452;2023-08-31T05:40:45;15.60;99.90
21612;DHT22;47005;52.292;13.452;2023-08-31T05:43:15;15.60;99.90
21612;DHT22;47005;52.292;13.452;2023-08-31T05:45:41;15.60;99.90
21612;DHT22;47005;52.292;13.452;2023-08-31T05:48:07;15.60;99.90
21612;DHT22;47005;52.292;13.452;2023-08-31T05:50:33;15.60;99.90
21612;DHT22;47005;52.292;13.452;2023-08-31T05:52:59;15.60;99.90
21612;DHT22;47005;52.292;13.452;2023-08-31T05:55:25;15.60;99.90
21612;DHT22;47005;52.292;13.452;2023-08-31T05:57:50;15.60;99.90
21612;DHT22;47005;52.292;13.452;2023-08-31T06:00:17;15.60;99.90
21612;DHT22;47005;52.292;13.452;2023-08-31T06:02:43;15.60;99.90
21612;DHT22;47005;52.292;13.452;2023-08-31T06:05:10;15.60;99.90
21612;DHT22;47005;52.292;13.452;2023-08-31T06:07:38;15.60;99.90
21612;DHT22;47005;52.292;13.452;2023-08-31T06:10:04;15.60;99.90
21612;DHT22;47005;52.292;13.452;2023-08-31T06:12:30;15.60;99.90
21612;DHT22;47005;52.292;13.452;2023-08-31T06:14:56;15.60;99.90
21612;DHT22;47005;52.292;13.452;2023-08-31T06:17:21;15.60;99.90
21612;DHT22;47005;52.292;13.452;2023-08-31T06:19:47;15.60;99.90
21612;DHT22;47005;52.292;13.452;2023-08-31T06:22:12;15.60;99.90
21612;DHT22;47005;52.292;13.452;2023-08-31T06:24:38;15.60;99.90
21612;DHT22;47005;52.292;13.452;2023-08-31T06:27:04;15.60;99.90
21612;DHT22;47005;52.292;13.452;2023-08-31T06:29:30;15.60;99.90
21612;DHT22;47005;52.292;13.452;2023-08-31T06:31:55;15.60;99.90
21612;DHT22;47005;52.292;13.452;2023-08-31T06:34:21;15.60;99.90
21612;DHT22;47005;52.292;13.452;2023-08-31T06:36:46;15.60;99.90
21612;DHT22;47005;52.292;13.452;2023-08-31T06:39:12;15.70;99.90
21612;DHT22;47005;52.292;13.452;2023-08-31T06:41:38;15.70;99.90
21612;DHT22;47005;52.292;13.452;2023-08-31T06:44:03;15.70;99.90
21612;DHT22;47005;52.292;13.452;2023-08-31T06:46:30;15.70;99.90
21612;DHT22;47005;52.292;13.452;2023-08-31T06:49:00;15.70;99.90
21612;DHT22;47005;52.292;13.452;2023-08-31T06:51:25;15.70;99.90
21612;DHT22;47005;52.292;13.452;2023-08-31T06:53:51;15.80;99.90
21612;DHT22;47005;52.292;13.452;2023-08-31T06:56:16;15.70;99.90
21612;DHT22;47005;52.292;13.452;2023-08-31T06:58:42;15.70;99.90
21612;DHT22;47005;52.292;13.452;2023-08-31T07:01:08;15.70;99.90
21612;DHT22;47005;52.292;13.452;2023-08-31T07:03:34;15.70;99.90
21612;DHT22;47005;52.292;13.452;2023-08-31T07:06:00;15.70;99.90
21612;DHT22;47005;52.292;13.452;2023-08-31T07:08:26;15.70;99.90
21612;DHT22;47005;52.292;13.452;2023-08-31T07:10:52;15.70;99.90
21612;DHT22;47005;52.292;13.452;2023-08-31T07:13:17;15.70;99.90
21612;DHT22;47005;52.292;13.452;2023-08-31T07:15:43;15.70;99.90
21612;DHT22;47005;52.292;13.452;2023-08-31T07:18:09;15.70;99.90
21612;DHT22;47005;52.292;13.452;2023-08-31T07:20:35;15.70;99.90
21612;DHT22;47005;52.292;13.452;2023-08-31T07:23:00;15.70;99.90
21612;DHT22;47005;52.292;13.452;2023-08-31T07:25:26;15.70;99.90
21612;DHT22;47005;52.292;13.452;2023-08-31T07:27:52;15.70;99.90
21612;DHT22;47005;52.292;13.452;2023-08-31T07:30:18;15.70;99.90
21612;DHT22;47005;52.292;13.452;2023-08-31T07:32:44;15.70;99.90
21612;DHT22;47005;52.292;13.452;2023-08-31T07:35:10;15.70;99.90
21612;DHT22;47005;52.292;13.452;2023-08-31T07:37:35;15.70;99.90
21612;DHT22;47005;52.292;13.452;2023-08-31T07:40:03;15.70;99.90
21612;DHT22;47005;52.292;13.452;2023-08-31T07:42:29;15.70;99.90
21612;DHT22;47005;52.292;13.452;2023-08-31T07:44:55;15.70;99.90
21612;DHT22;47005;52.292;13.452;2023-08-31T07:47:20;15.80;99.90
21612;DHT22;47005;52.292;13.452;2023-08-31T07:49:46;15.80;99.90
21612;DHT22;47005;52.292;13.452;2023-08-31T07:52:12;15.80;99.90
21612;DHT22;47005;52.292;13.452;2023-08-31T07:54:37;15.80;99.90
21612;DHT22;47005;52.292;13.452;2023-08-31T07:57:03;15.80;99.90
21612;DHT22;47005;52.292;13.452;2023-08-31T07:59:29;15.80;99.90
21612;DHT22;47005;52.292;13.452;2023-08-31T08:01:54;15.80;99.90
21612;DHT22;47005;52.292;13.452;2023-08-31T08:04:20;15.80;99.90
21612;DHT22;47005;52.292;13.452;2023-08-31T08:06:45;15.80;99.90
21612;DHT22;47005;52.292;13.452;2023-08-31T08:09:11;15.90;99.90
21612;DHT22;47005;52.292;13.452;2023-08-31T08:11:37;15.90;99.90
21612;DHT22;47005;52.292;13.452;2023-08-31T08:14:03;15.90;99.90
21612;DHT22;47005;52.292;13.452;2023-08-31T08:16:29;15.90;99.90
21612;DHT22;47005;52.292;13.452;2023-08-31T08:18:55;15.90;99.90
21612;DHT22;47005;52.292;13.452;2023-08-31T08:21:20;15.90;99.90
21612;DHT22;47005;52.292;13.452;2023-08-31T08:23:46;15.90;99.90
21612;DHT22;47005;52.292;13.452;2023-08-31T08:26:11;15.90;99.90
21612;DHT22;47005;52.292;13.452;2023-08-31T08:28:37;15.90;99.90
21612;DHT22;47005;52.292;13.452;2023-08-31T08:31:03;15.90;99.90
21612;DHT22;47005;52.292;13.452;2023-08-31T08:33:30;16.00;99.90
21612;DHT22;47005;52.292;13.452;2023-08-31T08:35:58;16.00;99.90
21612;DHT22;47005;52.292;13.452;2023-08-31T08:38:25;16.00;99.90
21612;DHT22;47005;52.292;13.452;2023-08-31T08:40:51;16.00;99.90
21612;DHT22;47005;52.292;13.452;2023-08-31T08:43:23;16.00;99.90
21612;DHT22;47005;52.292;13.452;2023-08-31T08:45:51;16.10;99.90
21612;DHT22;47005;52.292;13.452;2023-08-31T08:48:18;16.10;99.90
21612;DHT22;47005;52.292;13.452;2023-08-31T08:50:45;16.10;99.90
21612;DHT22;47005;52.292;13.452;2023-08-31T08:53:11;16.20;99.90
21612;DHT22;47005;52.292;13.452;2023-08-31T08:55:39;16.20;99.90
21612;DHT22;47005;52.292;13.452;2023-08-31T08:58:06;16.20;99.90
21612;DHT22;47005;52.292;13.452;2023-08-31T09:00:32;16.30;99.90
21612;DHT22;47005;52.292;13.452;2023-08-31T09:03:00;16.30;99.90
21612;DHT22;47005;52.292;13.452;2023-08-31T09:05:26;16.30;99.90
21612;DHT22;47005;52.292;13.452;2023-08-31T09:08:10;16.40;99.90
21612;DHT22;47005;52.292;13.452;2023-08-31T09:10:42;16.40;99.90
21612;DHT22;47005;52.292;13.452;2023-08-31T09:13:15;16.50;99.90
21612;DHT22;47005;52.292;13.452;2023-08-31T09:15:48;16.50;99.90
21612;DHT22;47005;52.292;13.452;2023-08-31T09:20:54;16.60;99.90
21612;DHT22;47005;52.292;13.452;2023-08-31T09:23:22;16.70;99.90
21612;DHT22;47005;52.292;13.452;2023-08-31T09:25:49;16.70;99.90
21612;DHT22;47005;52.292;13.452;2023-08-31T09:28:20;16.70;99.90
21612;DHT22;47005;52.292;13.452;2023-08-31T09:30:48;16.80;99.90
21612;DHT22;47005;52.292;13.452;2023-08-31T09:33:15;16.80;99.90
21612;DHT22;47005;52.292;13.452;2023-08-31T09:35:55;16.80;99.90
21612;DHT22;47005;52.292;13.452;2023-08-31T09:38:21;16.80;99.90
21612;DHT22;47005;52.292;13.452;2023-08-31T09:40:47;16.80;99.90
21612;DHT22;47005;52.292;13.452;2023-08-31T09:43:19;16.80;99.90
21612;DHT22;47005;52.292;13.452;2023-08-31T09:45:45;16.80;99.90
21612;DHT22;47005;52.292;13.452;2023-08-31T09:48:11;16.80;99.90
21612;DHT22;47005;52.292;13.452;2023-08-31T09:50:39;16.80;99.90
21612;DHT22;47005;52.292;13.452;2023-08-31T09:53:05;16.80;99.90
21612;DHT22;47005;52.292;13.452;2023-08-31T09:55:32;16.80;99.90
21612;DHT22;47005;52.292;13.452;2023-08-31T09:58:00;16.80;99.90
21612;DHT22;47005;52.292;13.452;2023-08-31T10:00:27;16.80;99.90
21612;DHT22;47005;52.292;13.452;2023-08-31T10:02:56;16.70;99.90
21612;DHT22;47005;52.292;13.452;2023-08-31T10:05:24;16.80;99.90
21612;DHT22;47005;52.292;13.452;2023-08-31T10:07:53;16.70;99.90
21612;DHT22;47005;52.292;13.452;2023-08-31T10:10:19;16.70;99.90
21612;DHT22;47005;52.292;13.452;2023-08-31T10:12:48;16.70;99.90
21612;DHT22;47005;52.292;13.452;2023-08-31T10:15:16;16.70;99.90
21612;DHT22;47005;52.292;13.452;2023-08-31T10:17:42;16.70;99.90
21612;DHT22;47005;52.292;13.452;2023-08-31T10:20:09;16.70;99.90
21612;DHT22;47005;52.292;13.452;2023-08-31T10:22:36;16.70;99.90
21612;DHT22;47005;52.292;13.452;2023-08-31T10:25:04;16.70;99.90
21612;DHT22;47005;52.292;13.452;2023-08-31T10:27:37;16.80;99.90
21612;DHT22;47005;52.292;13.452;2023-08-31T10:32:40;16.80;99.90
21612;DHT22;47005;52.292;13.452;2023-08-31T10:35:08;16.90;99.90
21612;DHT22;47005;52.292;13.452;2023-08-31T10:37:34;16.90;99.90
21612;DHT22;47005;52.292;13.452;2023-08-31T10:40:12;17.00;99.90
21612;DHT22;47005;52.292;13.452;2023-08-31T10:42:45;17.10;99.90
21612;DHT22;47005;52.292;13.452;2023-08-31T10:45:19;17.10;99.90
21612;DHT22;47005;52.292;13.452;2023-08-31T10:47:46;17.20;99.90
21612;DHT22;47005;52.292;13.452;2023-08-31T10:50:17;17.30;99.90
21612;DHT22;47005;52.292;13.452;2023-08-31T10:52:44;17.30;99.90
21612;DHT22;47005;52.292;13.452;2023-08-31T10:55:11;17.40;99.90
21612;DHT22;47005;52.292;13.452;2023-08-31T10:57:37;17.40;99.90
21612;DHT22;47005;52.292;13.452;2023-08-31T11:00:05;17.50;99.80
21612;DHT22;47005;52.292;13.452;2023-08-31T11:02:46;17.50;99.90
21612;DHT22;47005;52.292;13.452;2023-08-31T11:05:14;17.60;99.50
21612;DHT22;47005;52.292;13.452;2023-08-31T11:07:44;17.60;99.80
21612;DHT22;47005;52.292;13.452;2023-08-31T11:12:38;17.70;99.90
21612;DHT22;47005;52.292;13.452;2023-08-31T11:15:05;17.70;99.50
21612;DHT22;47005;52.292;13.452;2023-08-31T11:17:31;17.70;99.80
21612;DHT22;47005;52.292;13.452;2023-08-31T11:20:00;17.70;99.50
21612;DHT22;47005;52.292;13.452;2023-08-31T11:22:26;17.70;99.80
21612;DHT22;47005;52.292;13.452;2023-08-31T11:24:52;17.70;99.30
21612;DHT22;47005;52.292;13.452;2023-08-31T11:27:21;17.70;99.40
21612;DHT22;47005;52.292;13.452;2023-08-31T11:29:47;17.80;99.60
21612;DHT22;47005;52.292;13.452;2023-08-31T11:32:13;17.70;99.20
21612;DHT22;47005;52.292;13.452;2023-08-31T11:34:44;17.80;99.70
21612;DHT22;47005;52.292;13.452;2023-08-31T11:37:13;17.80;99.60
21612;DHT22;47005;52.292;13.452;2023-08-31T11:39:52;17.80;99.30
21612;DHT22;47005;52.292;13.452;2023-08-31T11:42:20;17.80;98.90
21612;DHT22;47005;52.292;13.452;2023-08-31T11:44:50;17.80;99.50
21612;DHT22;47005;52.292;13.452;2023-08-31T11:47:17;17.80;99.70
21612;DHT22;47005;52.292;13.452;2023-08-31T11:49:44;17.80;99.90
21612;DHT22;47005;52.292;13.452;2023-08-31T11:52:12;17.80;99.80
21612;DHT22;47005;52.292;13.452;2023-08-31T11:54:39;17.80;99.70
21612;DHT22;47005;52.292;13.452;2023-08-31T11:57:07;17.80;99.70
21612;DHT22;47005;52.292;13.452;2023-08-31T11:59:38;17.80;99.10
21612;DHT22;47005;52.292;13.452;2023-08-31T12:02:08;17.80;98.90
21612;DHT22;47005;52.292;13.452;2023-08-31T12:04:42;17.80;98.80
21612;DHT22;47005;52.292;13.452;2023-08-31T12:07:09;17.70;98.30
21612;DHT22;47005;52.292;13.452;2023-08-31T12:09:35;17.70;98.50
21612;DHT22;47005;52.292;13.452;2023-08-31T12:12:00;17.70;98.10
21612;DHT22;47005;52.292;13.452;2023-08-31T12:14:27;17.80;97.80
21612;DHT22;47005;52.292;13.452;2023-08-31T12:17:04;17.80;97.30
21612;DHT22;47005;52.292;13.452;2023-08-31T12:19:31;17.80;97.40
21612;DHT22;47005;52.292;13.452;2023-08-31T12:21:57;17.80;97.10
21612;DHT22;47005;52.292;13.452;2023-08-31T12:24:23;17.80;97.10
21612;DHT22;47005;52.292;13.452;2023-08-31T12:26:50;17.90;96.70
21612;DHT22;47005;52.292;13.452;2023-08-31T12:29:16;17.90;97.20
21612;DHT22;47005;52.292;13.452;2023-08-31T12:31:42;17.90;96.50
21612;DHT22;47005;52.292;13.452;2023-08-31T12:34:09;17.90;96.30
21612;DHT22;47005;52.292;13.452;2023-08-31T12:36:35;17.90;96.50
21612;DHT22;47005;52.292;13.452;2023-08-31T12:39:07;17.90;96.50
21612;DHT22;47005;52.292;13.452;2023-08-31T12:41:35;17.90;96.70
21612;DHT22;47005;52.292;13.452;2023-08-31T12:44:02;17.90;96.50
21612;DHT22;47005;52.292;13.452;2023-08-31T12:46:29;17.90;96.90
21612;DHT22;47005;52.292;13.452;2023-08-31T12:48:55;17.90;96.70
21612;DHT22;47005;52.292;13.452;2023-08-31T12:51:20;17.90;96.90
21612;DHT22;47005;52.292;13.452;2023-08-31T12:53:46;17.80;96.80
21612;DHT22;47005;52.292;13.452;2023-08-31T12:56:12;17.80;96.70
21612;DHT22;47005;52.292;13.452;2023-08-31T12:58:38;17.80;97.20
21612;DHT22;47005;52.292;13.452;2023-08-31T13:01:04;17.80;97.30
21612;DHT22;47005;52.292;13.452;2023-08-31T13:03:30;17.80;97.70
21612;DHT22;47005;52.292;13.452;2023-08-31T13:05:56;17.80;98.20
21612;DHT22;47005;52.292;13.452;2023-08-31T13:08:21;17.70;98.30
21612;DHT22;47005;52.292;13.452;2023-08-31T13:10:54;17.70;98.60
21612;DHT22;47005;52.292;13.452;2023-08-31T13:13:21;17.70;98.80
21612;DHT22;47005;52.292;13.452;2023-08-31T13:15:47;17.70;99.10
21612;DHT22;47005;52.292;13.452;2023-08-31T13:18:13;17.70;99.20
21612;DHT22;47005;52.292;13.452;2023-08-31T13:20:39;17.60;99.40
21612;DHT22;47005;52.292;13.452;2023-08-31T13:23:06;17.60;99.80
21612;DHT22;47005;52.292;13.452;2023-08-31T13:25:31;17.60;99.90
21612;DHT22;47005;52.292;13.452;2023-08-31T13:27:57;17.60;99.90
21612;DHT22;47005;52.292;13.452;2023-08-31T13:30:23;17.60;99.90
21612;DHT22;47005;52.292;13.452;2023-08-31T13:32:49;17.60;99.90
21612;DHT22;47005;52.292;13.452;2023-08-31T13:35:15;17.60;99.90
21612;DHT22;47005;52.292;13.452;2023-08-31T13:37:41;17.60;99.90
21612;DHT22;47005;52.292;13.452;2023-08-31T13:40:07;17.60;99.90
21612;DHT22;47005;52.292;13.452;2023-08-31T13:42:35;17.60;99.90
21612;DHT22;47005;52.292;13.452;2023-08-31T13:45:05;17.60;99.90
21612;DHT22;47005;52.292;13.452;2023-08-31T13:47:31;17.60;99.90
21612;DHT22;47005;52.292;13.452;2023-08-31T13:49:56;17.50;99.90
21612;DHT22;47005;52.292;13.452;2023-08-31T13:52:22;17.50;99.90
21612;DHT22;47005;52.292;13.452;2023-08-31T13:54:48;17.50;99.90
21612;DHT22;47005;52.292;13.452;2023-08-31T13:57:14;17.50;99.90
21612;DHT22;47005;52.292;13.452;2023-08-31T13:59:43;17.40;99.10
21612;DHT22;47005;52.292;13.452;2023-08-31T14:02:08;17.40;99.50
21612;DHT22;47005;52.292;13.452;2023-08-31T14:04:34;17.40;99.30
21612;DHT22;47005;52.292;13.452;2023-08-31T14:07:00;17.40;99.20
21612;DHT22;47005;52.292;13.452;2023-08-31T14:09:27;17.30;99.40
21612;DHT22;47005;52.292;13.452;2023-08-31T14:11:52;17.30;99.60
21612;DHT22;47005;52.292;13.452;2023-08-31T14:14:19;17.30;99.70
21612;DHT22;47005;52.292;13.452;2023-08-31T14:16:47;17.20;99.80
21612;DHT22;47005;52.292;13.452;2023-08-31T14:19:12;17.20;99.80
21612;DHT22;47005;52.292;13.452;2023-08-31T14:21:38;17.20;99.90
21612;DHT22;47005;52.292;13.452;2023-08-31T14:24:04;17.20;99.90
21612;DHT22;47005;52.292;13.452;2023-08-31T14:26:30;17.20;99.90
21612;DHT22;47005;52.292;13.452;2023-08-31T14:28:55;17.30;99.90
21612;DHT22;47005;52.292;13.452;2023-08-31T14:31:21;17.30;99.90
21612;DHT22;47005;52.292;13.452;2023-08-31T14:33:47;17.30;99.90
21612;DHT22;47005;52.292;13.452;2023-08-31T14:36:15;17.30;99.90
21612;DHT22;47005;52.292;13.452;2023-08-31T14:38:41;17.40;99.90
21612;DHT22;47005;52.292;13.452;2023-08-31T14:41:07;17.40;99.90
21612;DHT22;47005;52.292;13.452;2023-08-31T14:43:33;17.40;99.90
21612;DHT22;47005;52.292;13.452;2023-08-31T14:45:59;17.40;99.90
21612;DHT22;47005;52.292;13.452;2023-08-31T14:48:29;17.40;99.90
21612;DHT22;47005;52.292;13.452;2023-08-31T14:50:55;17.40;99.90
21612;DHT22;47005;52.292;13.452;2023-08-31T14:53:24;17.40;99.80
21612;DHT22;47005;52.292;13.452;2023-08-31T14:55:50;17.40;99.90
21612;DHT22;47005;52.292;13.452;2023-08-31T14:58:16;17.50;99.90
21612;DHT22;47005;52.292;13.452;2023-08-31T15:00:41;17.50;99.30
21612;DHT22;47005;52.292;13.452;2023-08-31T15:03:07;17.50;99.60
21612;DHT22;47005;52.292;13.452;2023-08-31T15:05:32;17.50;99.40
21612;DHT22;47005;52.292;13.452;2023-08-31T15:08:00;17.40;99.50
21612;DHT22;47005;52.292;13.452;2023-08-31T15:10:27;17.50;99.30
21612;DHT22;47005;52.292;13.452;2023-08-31T15:12:52;17.50;99.50
21612;DHT22;47005;52.292;13.452;2023-08-31T15:15:23;17.50;99.30
21612;DHT22;47005;52.292;13.452;2023-08-31T15:17:49;17.50;99.40
21612;DHT22;47005;52.292;13.452;2023-08-31T15:20:14;17.50;99.40
21612;DHT22;47005;52.292;13.452;2023-08-31T15:22:40;17.60;99.60
21612;DHT22;47005;52.292;13.452;2023-08-31T15:25:06;17.60;99.60
21612;DHT22;47005;52.292;13.452;2023-08-31T15:27:32;17.60;99.30